Time;durP1;ratioP1;P1;durP2;ratioP2;P2;SDS_P1;SDS_P2;PMS_P1;PMS_P2;Temp;Humidity;BMP_temperature;BMP_pressure;BME280_temperature;BME280_humidity;BME280_pressure;Samples;Min_cycle;Max_cycle;Signal;HPM_P1;HPM_P2
2020/08/15 00:01:09;;;;;;;2.87;2.40;;;;;;;23.69;70.20;100275.38;;;;-56
2020/08/15 00:04:09;;;;;;;2.83;2.57;;;;;;;23.68;70.22;100274.41;;;;-56
2020/08/15 00:07:09;;;;;;;2.51;2.31;;;;;;;23.68;70.21;100277.36;;;;-56
2020/08/15 00:10:09;;;;;;;3.07;2.41;;;;;;;23.68;70.15;100272.30;;;;-56
2020/08/15 00:13:09;;;;;;;2.75;2.55;;;;;;;23.67;70.17;100270.75;;;;-56
2020/08/15 00:16:09;;;;;;;2.71;2.47;;;;;;;23.66;70.15;100263.97;;;;-56
2020/08/15 00:19:09;;;;;;;2.67;2.47;;;;;;;23.66;70.16;100263.66;;;;-56
2020/08/15 00:22:09;;;;;;;2.64;2.34;;;;;;;23.66;70.16;100260.86;;;;-56
2020/08/15 00:25:09;;;;;;;2.52;2.32;;;;;;;23.65;70.11;100257.26;;;;-56
2020/08/15 00:28:09;;;;;;;3.23;2.40;;;;;;;23.65;70.11;100252.86;;;;-55
2020/08/15 00:31:09;;;;;;;2.55;2.35;;;;;;;23.65;70.08;100256.28;;;;-56
2020/08/15 00:34:09;;;;;;;2.50;2.30;;;;;;;23.65;70.14;100257.53;;;;-56
2020/08/15 00:37:09;;;;;;;2.60;2.40;;;;;;;23.64;70.10;100253.52;;;;-56
2020/08/15 00:40:09;;;;;;;2.88;2.23;;;;;;;23.63;70.17;100249.43;;;;-56
2020/08/15 00:43:09;;;;;;;2.58;2.34;;;;;;;23.64;70.09;100249.28;;;;-56
2020/08/15 00:46:09;;;;;;;2.93;2.39;;;;;;;23.63;70.15;100247.39;;;;-56
2020/08/15 00:49:09;;;;;;;2.43;2.23;;;;;;;23.62;70.05;100245.21;;;;-57
2020/08/15 00:52:09;;;;;;;2.54;2.34;;;;;;;23.62;70.12;100247.66;;;;-56
2020/08/15 00:55:09;;;;;;;2.48;2.28;;;;;;;23.61;70.13;100244.31;;;;-56
2020/08/15 00:58:09;;;;;;;2.30;2.09;;;;;;;23.61;70.17;100244.64;;;;-55
2020/08/15 01:01:08;;;;;;;2.50;2.30;;;;;;;23.61;70.12;100243.90;;;;-56
2020/08/15 01:04:09;;;;;;;2.41;2.21;;;;;;;23.60;70.13;100239.91;;;;-56
2020/08/15 01:07:09;;;;;;;2.47;2.27;;;;;;;23.60;70.14;100236.42;;;;-56
2020/08/15 01:10:09;;;;;;;2.61;2.41;;;;;;;23.60;70.14;100233.64;;;;-56
2020/08/15 01:13:09;;;;;;;2.59;2.39;;;;;;;23.60;70.11;100233.87;;;;-56
2020/08/15 01:16:09;;;;;;;2.45;2.09;;;;;;;23.60;70.16;100233.64;;;;-56
2020/08/15 01:19:09;;;;;;;2.51;2.26;;;;;;;23.59;70.10;100230.19;;;;-56
2020/08/15 01:22:09;;;;;;;2.49;2.29;;;;;;;23.58;70.15;100228.33;;;;-56
2020/08/15 01:25:09;;;;;;;2.24;2.11;;;;;;;23.58;70.14;100228.41;;;;-56
2020/08/15 01:28:09;;;;;;;2.31;2.11;;;;;;;23.58;70.16;100231.61;;;;-56
2020/08/15 01:31:09;;;;;;;2.45;2.25;;;;;;;23.58;70.20;100228.10;;;;-56
2020/08/15 01:34:08;;;;;;;2.40;2.20;;;;;;;23.57;70.19;100227.28;;;;-55
2020/08/15 01:37:09;;;;;;;2.61;2.41;;;;;;;23.57;70.17;100229.06;;;;-55
2020/08/15 01:40:09;;;;;;;2.40;2.20;;;;;;;23.56;70.13;100230.24;;;;-56
2020/08/15 01:43:09;;;;;;;2.51;2.31;;;;;;;23.57;70.23;100232.68;;;;-56
2020/08/15 01:46:09;;;;;;;2.74;2.48;;;;;;;23.56;70.18;100233.93;;;;-56
2020/08/15 01:49:09;;;;;;;3.78;2.33;;;;;;;23.56;70.25;100234.91;;;;-56
2020/08/15 01:52:09;;;;;;;2.40;2.20;;;;;;;23.55;70.24;100236.56;;;;-56
2020/08/15 01:55:09;;;;;;;2.47;2.23;;;;;;;23.56;70.23;100240.64;;;;-56
2020/08/15 01:58:09;;;;;;;2.49;2.29;;;;;;;23.56;70.23;100244.82;;;;-55
2020/08/15 02:01:09;;;;;;;2.19;2.09;;;;;;;23.55;70.21;100243.98;;;;-56
2020/08/15 02:04:09;;;;;;;2.43;2.23;;;;;;;23.55;70.28;100245.71;;;;-56
2020/08/15 02:07:09;;;;;;;2.56;2.15;;;;;;;23.55;70.26;100246.45;;;;-56
2020/08/15 02:10:09;;;;;;;2.52;2.32;;;;;;;23.54;70.26;100234.11;;;;-56
2020/08/15 02:13:09;;;;;;;2.40;2.20;;;;;;;23.54;70.27;100234.03;;;;-56
2020/08/15 02:16:09;;;;;;;2.40;2.20;;;;;;;23.54;70.28;100233.05;;;;-56
2020/08/15 02:19:09;;;;;;;2.53;2.33;;;;;;;23.53;70.33;100227.92;;;;-55
2020/08/15 02:22:09;;;;;;;2.39;2.19;;;;;;;23.53;70.21;100224.88;;;;-56
2020/08/15 02:25:08;;;;;;;2.53;2.17;;;;;;;23.53;70.23;100224.98;;;;-56
2020/08/15 02:28:09;;;;;;;2.48;2.28;;;;;;;23.52;70.35;100224.73;;;;-56
2020/08/15 02:31:09;;;;;;;2.44;2.21;;;;;;;23.52;70.31;100223.83;;;;-56
2020/08/15 02:34:09;;;;;;;2.31;2.11;;;;;;;23.52;70.31;100223.10;;;;-56
2020/08/15 02:37:09;;;;;;;2.30;2.10;;;;;;;23.52;70.33;100218.84;;;;-56
2020/08/15 02:40:09;;;;;;;2.33;2.13;;;;;;;23.52;70.30;100221.80;;;;-56
2020/08/15 02:43:09;;;;;;;2.47;2.27;;;;;;;23.51;70.35;100215.35;;;;-56
2020/08/15 02:46:09;;;;;;;2.25;2.10;;;;;;;23.51;70.32;100215.84;;;;-56
2020/08/15 02:49:09;;;;;;;2.26;2.10;;;;;;;23.50;70.35;100218.79;;;;-56
2020/08/15 02:52:09;;;;;;;2.42;2.19;;;;;;;23.50;70.32;100220.66;;;;-55
2020/08/15 02:55:09;;;;;;;2.30;2.10;;;;;;;23.50;70.36;100221.33;;;;-56
2020/08/15 02:58:09;;;;;;;2.40;2.20;;;;;;;23.50;70.37;100219.61;;;;-56
2020/08/15 03:01:08;;;;;;;2.33;2.13;;;;;;;23.49;70.36;100217.02;;;;-56
2020/08/15 03:04:08;;;;;;;2.30;2.10;;;;;;;23.50;70.36;100217.24;;;;-56
2020/08/15 03:07:09;;;;;;;2.40;2.20;;;;;;;23.48;70.42;100212.93;;;;-56
2020/08/15 03:10:09;;;;;;;2.50;2.30;;;;;;;23.49;70.40;100214.46;;;;-56
2020/08/15 03:13:09;;;;;;;2.27;2.13;;;;;;;23.48;70.37;100210.15;;;;-56
2020/08/15 03:16:09;;;;;;;2.40;2.20;;;;;;;23.48;70.46;100205.73;;;;-56
2020/08/15 03:19:09;;;;;;;2.29;2.09;;;;;;;23.48;70.38;100204.84;;;;-56
2020/08/15 03:22:09;;;;;;;2.16;2.05;;;;;;;23.47;70.40;100204.69;;;;-56
2020/08/15 03:25:09;;;;;;;2.31;2.15;;;;;;;23.47;70.42;100202.16;;;;-56
2020/08/15 03:28:09;;;;;;;2.39;2.19;;;;;;;23.47;70.39;100199.11;;;;-56
2020/08/15 03:31:08;;;;;;;2.30;2.10;;;;;;;23.46;70.41;100198.64;;;;-55
2020/08/15 03:34:08;;;;;;;2.32;2.12;;;;;;;23.47;70.41;100199.53;;;;-56
2020/08/15 03:37:08;;;;;;;2.13;2.03;;;;;;;23.46;70.41;100201.27;;;;-55
2020/08/15 03:40:09;;;;;;;2.31;2.11;;;;;;;23.46;70.36;100202.25;;;;-56
2020/08/15 03:43:09;;;;;;;2.29;2.13;;;;;;;23.46;70.36;100200.85;;;;-56
2020/08/15 03:46:09;;;;;;;2.65;2.10;;;;;;;23.45;70.37;100200.63;;;;-56
2020/08/15 03:49:09;;;;;;;2.14;2.03;;;;;;;23.45;70.38;100200.94;;;;-56
2020/08/15 03:52:09;;;;;;;2.28;2.10;;;;;;;23.45;70.40;100206.84;;;;-56
2020/08/15 03:55:09;;;;;;;2.27;2.07;;;;;;;23.45;70.39;100207.83;;;;-56
2020/08/15 03:58:09;;;;;;;2.05;1.95;;;;;;;23.45;70.34;100206.28;;;;-56
2020/08/15 04:01:09;;;;;;;2.08;1.98;;;;;;;23.45;70.35;100207.98;;;;-57
2020/08/15 04:04:08;;;;;;;2.05;1.95;;;;;;;23.45;70.38;100208.72;;;;-56
2020/08/15 04:07:09;;;;;;;2.28;2.13;;;;;;;23.44;70.35;100205.70;;;;-55
2020/08/15 04:10:09;;;;;;;2.26;2.10;;;;;;;23.45;70.33;100206.34;;;;-56
2020/08/15 04:13:09;;;;;;;2.04;1.90;;;;;;;23.44;70.30;100211.59;;;;-55
2020/08/15 04:16:09;;;;;;;2.30;2.11;;;;;;;23.44;70.32;100212.42;;;;-55
2020/08/15 04:19:09;;;;;;;2.05;1.94;;;;;;;23.43;70.36;100209.33;;;;-56
2020/08/15 04:22:09;;;;;;;2.09;1.97;;;;;;;23.44;70.35;100211.11;;;;-55
2020/08/15 04:25:09;;;;;;;2.34;2.14;;;;;;;23.43;70.33;100211.62;;;;-56
2020/08/15 04:28:09;;;;;;;2.07;1.88;;;;;;;23.43;70.31;100217.59;;;;-55
2020/08/15 04:31:09;;;;;;;2.19;1.99;;;;;;;23.44;70.32;100222.16;;;;-55
2020/08/15 04:34:08;;;;;;;2.16;2.01;;;;;;;23.43;70.33;100221.52;;;;-55
2020/08/15 04:37:08;;;;;;;2.16;2.03;;;;;;;23.43;70.32;100231.56;;;;-55
2020/08/15 04:40:09;;;;;;;2.35;2.15;;;;;;;23.42;70.33;100232.55;;;;-55
2020/08/15 04:43:09;;;;;;;2.11;2.01;;;;;;;23.43;70.32;100236.63;;;;-55
2020/08/15 04:46:09;;;;;;;2.10;2.00;;;;;;;23.43;70.28;100240.98;;;;-55
2020/08/15 04:49:09;;;;;;;2.19;2.00;;;;;;;23.42;70.36;100240.02;;;;-55
2020/08/15 04:52:09;;;;;;;2.17;2.01;;;;;;;23.42;70.30;100240.09;;;;-55
2020/08/15 04:55:09;;;;;;;2.15;2.03;;;;;;;23.42;70.31;100243.11;;;;-56
2020/08/15 04:58:09;;;;;;;2.01;1.91;;;;;;;23.42;70.29;100246.80;;;;-56
2020/08/15 05:01:09;;;;;;;2.15;2.05;;;;;;;23.42;70.32;100259.30;;;;-55
2020/08/15 05:04:09;;;;;;;2.33;2.13;;;;;;;23.42;70.32;100263.58;;;;-56
2020/08/15 05:07:09;;;;;;;2.00;1.90;;;;;;;23.42;70.30;100268.97;;;;-55
2020/08/15 05:10:09;;;;;;;2.01;1.90;;;;;;;23.41;70.32;100277.08;;;;-55
2020/08/15 05:13:09;;;;;;;2.10;2.00;;;;;;;23.42;70.34;100284.67;;;;-55
2020/08/15 05:16:08;;;;;;;2.01;1.89;;;;;;;23.41;70.33;100282.07;;;;-56
2020/08/15 05:19:09;;;;;;;6.38;2.27;;;;;;;23.42;70.52;100282.05;;;;-54
2020/08/15 05:22:09;;;;;;;4.71;3.19;;;;;;;23.42;71.37;100280.73;;;;-53
2020/08/15 05:25:09;;;;;;;3.84;3.28;;;;;;;23.42;71.54;100286.12;;;;-58
2020/08/15 05:28:09;;;;;;;8.13;4.09;;;;;;;23.43;71.75;100288.34;;;;-55
2020/08/15 05:31:09;;;;;;;3.91;3.30;;;;;;;23.43;71.39;100285.86;;;;-54
2020/08/15 05:34:09;;;;;;;9.00;6.88;;;;;;;23.34;73.80;100288.69;;;;-53
2020/08/15 05:37:08;;;;;;;9.81;7.28;;;;;;;23.31;74.49;100289.38;;;;-53
2020/08/15 05:40:09;;;;;;;8.05;6.84;;;;;;;23.27;75.10;100291.56;;;;-54
2020/08/15 05:43:09;;;;;;;8.71;6.97;;;;;;;23.23;75.42;100294.96;;;;-54
2020/08/15 05:46:08;;;;;;;8.30;6.59;;;;;;;23.19;75.82;100292.06;;;;-58
2020/08/15 05:49:09;;;;;;;7.39;6.67;;;;;;;23.18;76.22;100293.16;;;;-54
2020/08/15 05:52:09;;;;;;;8.67;6.93;;;;;;;23.17;76.80;100293.89;;;;-53
2020/08/15 05:55:09;;;;;;;7.96;6.50;;;;;;;23.17;76.92;100300.16;;;;-53
2020/08/15 05:58:09;;;;;;;7.16;6.46;;;;;;;23.15;77.11;100295.20;;;;-53
2020/08/15 06:01:09;;;;;;;7.55;6.00;;;;;;;23.16;76.73;100295.61;;;;-53
2020/08/15 06:04:08;;;;;;;8.41;6.73;;;;;;;23.14;77.19;100296.30;;;;-55
2020/08/15 06:07:09;;;;;;;8.15;6.83;;;;;;;23.15;77.50;100301.19;;;;-58
2020/08/15 06:10:09;;;;;;;7.68;6.87;;;;;;;23.16;77.68;100300.45;;;;-53
2020/08/15 06:13:09;;;;;;;7.66;6.31;;;;;;;23.17;77.67;100298.78;;;;-53
2020/08/15 06:16:09;;;;;;;9.19;6.20;;;;;;;23.21;77.51;100299.80;;;;-52
2020/08/15 06:19:09;;;;;;;7.13;6.37;;;;;;;23.21;77.49;100304.63;;;;-52
2020/08/15 06:22:09;;;;;;;9.06;6.50;;;;;;;23.23;77.56;100306.08;;;;-52
2020/08/15 06:25:09;;;;;;;6.91;6.15;;;;;;;23.26;77.47;100306.61;;;;-53
2020/08/15 06:28:09;;;;;;;7.98;6.69;;;;;;;23.25;77.25;100307.44;;;;-53
2020/08/15 06:31:09;;;;;;;10.27;6.23;;;;;;;23.29;76.61;100309.86;;;;-54
2020/08/15 06:34:09;;;;;;;6.11;5.21;;;;;;;23.31;76.53;100313.51;;;;-54
2020/08/15 06:37:08;;;;;;;6.47;5.37;;;;;;;23.33;76.21;100315.63;;;;-53
2020/08/15 06:40:09;;;;;;;6.03;5.12;;;;;;;23.34;75.78;100315.09;;;;-53
2020/08/15 06:43:09;;;;;;;6.48;5.30;;;;;;;23.35;75.40;100315.59;;;;-53
2020/08/15 06:46:09;;;;;;;8.21;4.77;;;;;;;23.36;75.00;100312.30;;;;-53
2020/08/15 06:49:09;;;;;;;5.24;4.64;;;;;;;23.36;74.75;100309.43;;;;-53
2020/08/15 06:52:09;;;;;;;5.22;4.73;;;;;;;23.37;74.58;100312.14;;;;-54
2020/08/15 06:55:09;;;;;;;5.18;4.68;;;;;;;23.36;74.41;100308.60;;;;-54
2020/08/15 06:58:09;;;;;;;4.99;4.34;;;;;;;23.37;74.25;100311.73;;;;-53
2020/08/15 07:01:09;;;;;;;4.75;4.32;;;;;;;23.37;74.21;100305.50;;;;-54
2020/08/15 07:04:09;;;;;;;4.68;4.23;;;;;;;23.37;74.08;100313.27;;;;-53
2020/08/15 07:07:09;;;;;;;5.31;4.17;;;;;;;23.37;73.90;100313.67;;;;-53
2020/08/15 07:10:09;;;;;;;4.63;4.21;;;;;;;23.37;73.82;100317.28;;;;-53
2020/08/15 07:13:08;;;;;;;4.77;4.35;;;;;;;23.37;73.77;100319.72;;;;-53
2020/08/15 07:16:09;;;;;;;4.33;3.95;;;;;;;23.37;73.74;100318.50;;;;-54
2020/08/15 07:19:09;;;;;;;4.91;3.87;;;;;;;23.37;73.61;100317.77;;;;-53
2020/08/15 07:22:09;;;;;;;4.19;3.89;;;;;;;23.37;73.55;100310.67;;;;-53
2020/08/15 07:25:09;;;;;;;4.02;3.72;;;;;;;23.37;73.45;100309.27;;;;-54
2020/08/15 07:28:09;;;;;;;4.15;3.74;;;;;;;23.37;73.31;100312.29;;;;-53
2020/08/15 07:31:09;;;;;;;4.23;3.85;;;;;;;23.37;73.26;100309.77;;;;-54
2020/08/15 07:34:09;;;;;;;4.14;3.83;;;;;;;23.37;73.13;100310.09;;;;-54
2020/08/15 07:37:09;;;;;;;4.32;3.95;;;;;;;23.37;73.16;100306.66;;;;-54
2020/08/15 07:40:09;;;;;;;4.54;3.87;;;;;;;23.37;73.06;100302.23;;;;-54
2020/08/15 07:43:09;;;;;;;4.37;3.97;;;;;;;23.36;73.03;100299.62;;;;-54
2020/08/15 07:46:08;;;;;;;4.30;3.90;;;;;;;23.36;72.96;100306.31;;;;-54
2020/08/15 07:49:09;;;;;;;3.93;3.60;;;;;;;23.36;72.97;100307.87;;;;-54
2020/08/15 07:52:09;;;;;;;4.19;3.88;;;;;;;23.38;73.31;100312.93;;;;-64
2020/08/15 07:55:09;;;;;;;4.37;3.97;;;;;;;23.38;73.54;100307.12;;;;-54
2020/08/15 07:58:09;;;;;;;4.20;3.81;;;;;;;23.39;73.48;100310.22;;;;-58
2020/08/15 08:01:09;;;;;;;4.73;4.00;;;;;;;23.42;73.36;100308.39;;;;-63
2020/08/15 08:04:09;;;;;;;4.50;3.97;;;;;;;23.43;73.92;100304.95;;;;-51
2020/08/15 08:07:09;;;;;;;5.63;3.91;;;;;;;23.42;73.49;100304.21;;;;-51
2020/08/15 08:10:09;;;;;;;4.87;3.83;;;;;;;23.42;73.50;100304.13;;;;-51
2020/08/15 08:13:09;;;;;;;4.45;3.91;;;;;;;23.43;73.43;100302.06;;;;-51
2020/08/15 08:16:09;;;;;;;5.40;3.58;;;;;;;23.43;73.57;100297.64;;;;-55
2020/08/15 08:19:08;;;;;;;6.59;3.70;;;;;;;23.44;73.28;100298.70;;;;-56
2020/08/15 08:22:09;;;;;;;5.01;3.94;;;;;;;23.44;73.07;100306.55;;;;-56
2020/08/15 08:25:08;;;;;;;4.48;3.62;;;;;;;23.44;72.95;100306.64;;;;-56
2020/08/15 08:28:08;;;;;;;6.17;3.91;;;;;;;23.43;72.83;100310.73;;;;-56
2020/08/15 08:31:08;;;;;;;5.01;3.71;;;;;;;23.43;72.90;100303.30;;;;-56
2020/08/15 08:34:09;;;;;;;3.68;3.38;;;;;;;23.43;72.85;100301.16;;;;-56
2020/08/15 08:37:08;;;;;;;9.31;3.95;;;;;;;23.42;73.21;100306.58;;;;-52
2020/08/15 08:40:09;;;;;;;5.66;3.85;;;;;;;23.43;73.13;100299.77;;;;-53
2020/08/15 08:43:09;;;;;;;6.13;3.58;;;;;;;23.42;72.69;100294.96;;;;-52
2020/08/15 08:46:09;;;;;;;4.18;3.63;;;;;;;23.42;72.70;100296.77;;;;-53
2020/08/15 08:49:08;;;;;;;6.47;3.46;;;;;;;23.42;72.51;100298.40;;;;-53
2020/08/15 08:52:08;;;;;;;4.39;3.57;;;;;;;23.42;72.54;100298.81;;;;-53
2020/08/15 08:55:08;;;;;;;6.42;3.69;;;;;;;23.42;72.43;100295.95;;;;-52
2020/08/15 08:58:09;;;;;;;4.43;3.61;;;;;;;23.42;72.44;100296.45;;;;-52
2020/08/15 09:01:08;;;;;;;4.91;3.47;;;;;;;23.42;72.43;100294.32;;;;-53
2020/08/15 09:04:08;;;;;;;5.81;3.49;;;;;;;23.41;72.36;100292.28;;;;-53
2020/08/15 09:07:08;;;;;;;5.95;3.61;;;;;;;23.41;72.36;100295.23;;;;-53
2020/08/15 09:10:09;;;;;;;5.07;3.66;;;;;;;23.41;72.41;100291.88;;;;-53
2020/08/15 09:13:09;;;;;;;3.94;3.41;;;;;;;23.40;72.63;100285.66;;;;-53
2020/08/15 09:16:09;;;;;;;5.69;3.83;;;;;;;23.42;73.00;100287.13;;;;-59
2020/08/15 09:19:08;;;;;;;7.21;3.61;;;;;;;23.43;73.05;100282.05;;;;-53
2020/08/15 09:22:09;;;;;;;4.87;3.51;;;;;;;23.44;73.09;100278.42;;;;-60
2020/08/15 09:25:08;;;;;;;4.89;3.63;;;;;;;23.46;73.21;100277.27;;;;-52
2020/08/15 09:28:09;;;;;;;10.39;3.88;;;;;;;23.48;73.39;100272.40;;;;-58
2020/08/15 09:31:08;;;;;;;8.43;3.81;;;;;;;23.51;73.59;100278.72;;;;-51
2020/08/15 09:34:09;;;;;;;19.36;4.62;;;;;;;23.53;74.13;100270.13;;;;-56
2020/08/15 09:37:09;;;;;;;15.47;3.96;;;;;;;23.55;73.64;100269.85;;;;-53
2020/08/15 09:40:08;;;;;;;15.77;4.02;;;;;;;23.57;73.84;100270.87;;;;-61
2020/08/15 09:43:08;;;;;;;14.07;4.25;;;;;;;23.60;73.91;100271.92;;;;-52
2020/08/15 09:46:09;;;;;;;10.02;4.07;;;;;;;23.61;74.01;100267.13;;;;-52
2020/08/15 09:49:09;;;;;;;10.55;4.07;;;;;;;23.64;73.94;100268.16;;;;-62
2020/08/15 09:52:09;;;;;;;19.57;4.40;;;;;;;23.65;74.53;100269.04;;;;-57
2020/08/15 09:55:09;;;;;;;15.63;4.48;;;;;;;23.67;74.33;100269.93;;;;-61
2020/08/15 09:58:09;;;;;;;16.55;4.21;;;;;;;23.68;74.18;100262.06;;;;-52
2020/08/15 10:01:08;;;;;;;17.95;4.21;;;;;;;23.69;74.36;100254.69;;;;-55
2020/08/15 10:04:08;;;;;;;14.63;4.30;;;;;;;23.70;74.22;100253.36;;;;-59
2020/08/15 10:07:09;;;;;;;17.32;4.19;;;;;;;23.72;74.33;100251.95;;;;-63
2020/08/15 10:10:09;;;;;;;13.79;4.13;;;;;;;23.73;74.25;100250.70;;;;-55
2020/08/15 10:13:09;;;;;;;16.07;4.02;;;;;;;23.74;74.25;100247.41;;;;-62
2020/08/15 10:16:09;;;;;;;15.23;4.47;;;;;;;23.75;74.29;100240.34;;;;-59
2020/08/15 10:19:09;;;;;;;14.62;4.18;;;;;;;23.77;74.10;100243.80;;;;-60
2020/08/15 10:22:08;;;;;;;16.43;4.40;;;;;;;23.78;74.54;100236.89;;;;-59
2020/08/15 10:25:09;;;;;;;15.52;4.17;;;;;;;23.80;74.11;100237.78;;;;-55
2020/08/15 10:28:09;;;;;;;15.46;4.37;;;;;;;23.80;74.01;100231.15;;;;-62
2020/08/15 10:31:09;;;;;;;18.01;4.77;;;;;;;23.82;73.87;100234.14;;;;-60
2020/08/15 10:34:09;;;;;;;12.89;4.11;;;;;;;23.80;73.56;100232.45;;;;-60
2020/08/15 10:37:09;;;;;;;14.05;4.32;;;;;;;23.79;73.45;100228.45;;;;-60
2020/08/15 10:40:08;;;;;;;13.51;4.17;;;;;;;23.78;73.42;100225.45;;;;-60
2020/08/15 10:43:08;;;;;;;12.12;4.24;;;;;;;23.78;73.39;100221.59;;;;-60
2020/08/15 10:46:09;;;;;;;13.09;4.06;;;;;;;23.77;73.35;100221.86;;;;-60
2020/08/15 10:49:09;;;;;;;14.63;4.05;;;;;;;23.76;73.18;100213.25;;;;-60
2020/08/15 10:52:09;;;;;;;13.63;3.96;;;;;;;23.76;73.08;100208.46;;;;-60
2020/08/15 10:55:08;;;;;;;14.69;4.15;;;;;;;23.76;72.99;100205.89;;;;-60
2020/08/15 10:58:09;;;;;;;13.17;4.04;;;;;;;23.74;72.83;100203.72;;;;-60
2020/08/15 11:01:08;;;;;;;13.75;3.93;;;;;;;23.74;72.94;100193.08;;;;-60
2020/08/15 11:04:08;;;;;;;11.22;3.85;;;;;;;23.74;72.90;100190.53;;;;-60
2020/08/15 11:07:09;;;;;;;12.70;4.23;;;;;;;23.73;72.83;100186.55;;;;-61
2020/08/15 11:10:08;;;;;;;10.55;3.93;;;;;;;23.73;72.83;100191.13;;;;-61
2020/08/15 11:13:09;;;;;;;10.83;4.01;;;;;;;23.73;72.63;100191.22;;;;-60
2020/08/15 11:16:09;;;;;;;9.59;3.84;;;;;;;23.72;72.71;100189.52;;;;-60
2020/08/15 11:19:09;;;;;;;11.00;3.83;;;;;;;23.71;72.62;100182.55;;;;-60
2020/08/15 11:22:09;;;;;;;8.42;3.47;;;;;;;23.71;72.61;100184.19;;;;-60
2020/08/15 11:25:09;;;;;;;7.98;3.54;;;;;;;23.71;72.49;100187.47;;;;-60
2020/08/15 11:28:09;;;;;;;9.23;3.63;;;;;;;23.71;72.48;100188.78;;;;-60
2020/08/15 11:31:08;;;;;;;7.62;3.45;;;;;;;23.71;72.44;100188.86;;;;-60
2020/08/15 11:34:08;;;;;;;12.12;3.83;;;;;;;23.70;72.41;100192.23;;;;-60
2020/08/15 11:37:09;;;;;;;7.03;3.37;;;;;;;23.70;72.39;100192.00;;;;-60
2020/08/15 11:40:08;;;;;;;6.35;3.47;;;;;;;23.69;72.28;100188.14;;;;-60
2020/08/15 11:43:08;;;;;;;7.59;3.66;;;;;;;23.69;72.36;100188.47;;;;-60
2020/08/15 11:46:09;;;;;;;7.33;3.41;;;;;;;23.69;72.26;100183.74;;;;-60
2020/08/15 11:49:09;;;;;;;7.47;3.41;;;;;;;23.69;72.24;100188.56;;;;-60
2020/08/15 11:52:08;;;;;;;7.34;3.44;;;;;;;23.69;72.20;100187.58;;;;-60
2020/08/15 11:55:08;;;;;;;7.37;3.49;;;;;;;23.69;72.20;100182.11;;;;-60
2020/08/15 11:58:09;;;;;;;6.89;3.59;;;;;;;23.68;72.17;100182.05;;;;-60
2020/08/15 12:01:08;;;;;;;9.28;3.49;;;;;;;23.68;72.14;100179.43;;;;-61
2020/08/15 12:04:08;;;;;;;15.76;3.61;;;;;;;23.68;72.24;100174.50;;;;-52
2020/08/15 12:07:08;;;;;;;8.61;3.37;;;;;;;23.68;72.28;100176.39;;;;-64
2020/08/15 12:10:09;;;;;;;5.91;3.35;;;;;;;23.70;72.36;100178.89;;;;-54
2020/08/15 12:13:09;;;;;;;16.19;3.71;;;;;;;23.71;72.53;100179.13;;;;-57
2020/08/15 12:16:09;;;;;;;12.33;3.50;;;;;;;23.73;72.61;100177.88;;;;-55
2020/08/15 12:19:09;;;;;;;8.77;3.33;;;;;;;23.75;72.69;100171.23;;;;-51
2020/08/15 12:22:09;;;;;;;7.52;3.35;;;;;;;23.76;72.71;100168.98;;;;-59
2020/08/15 12:25:09;;;;;;;9.27;3.32;;;;;;;23.78;72.67;100161.38;;;;-52
2020/08/15 12:28:08;;;;;;;6.54;3.32;;;;;;;23.79;72.49;100162.27;;;;-57
2020/08/15 12:31:08;;;;;;;6.15;3.23;;;;;;;23.79;72.64;100154.81;;;;-54
2020/08/15 12:34:08;;;;;;;9.39;3.33;;;;;;;23.80;72.56;100148.97;;;;-58
2020/08/15 12:37:08;;;;;;;7.83;3.34;;;;;;;23.81;72.65;100147.73;;;;-57
2020/08/15 12:40:08;;;;;;;9.43;3.73;;;;;;;23.82;72.45;100150.83;;;;-57
2020/08/15 12:43:08;;;;;;;9.15;3.55;;;;;;;23.82;72.72;100148.87;;;;-55
2020/08/15 12:46:09;;;;;;;7.01;3.36;;;;;;;23.83;72.59;100147.72;;;;-61
2020/08/15 12:49:09;;;;;;;13.61;4.03;;;;;;;23.85;72.73;100146.63;;;;-61
2020/08/15 12:52:09;;;;;;;16.93;4.04;;;;;;;23.87;72.68;100148.72;;;;-52
2020/08/15 12:55:09;;;;;;;11.98;3.65;;;;;;;23.86;72.53;100147.66;;;;-52
2020/08/15 12:58:09;;;;;;;10.09;3.75;;;;;;;23.85;72.54;100149.32;;;;-52
2020/08/15 13:01:09;;;;;;;9.59;3.49;;;;;;;23.84;72.42;100145.63;;;;-52
2020/08/15 13:04:08;;;;;;;14.36;3.45;;;;;;;23.84;72.44;100144.27;;;;-52
2020/08/15 13:07:09;;;;;;;11.81;3.35;;;;;;;23.84;72.37;100141.88;;;;-52
2020/08/15 13:10:08;;;;;;;9.53;3.50;;;;;;;23.83;72.34;100136.01;;;;-52
2020/08/15 13:13:08;;;;;;;10.43;3.42;;;;;;;23.84;72.42;100132.70;;;;-53
2020/08/15 13:16:08;;;;;;;8.33;3.44;;;;;;;23.84;72.28;100134.94;;;;-52
2020/08/15 13:19:08;;;;;;;14.02;3.89;;;;;;;23.86;72.50;100130.22;;;;-55
2020/08/15 13:22:08;;;;;;;11.21;3.41;;;;;;;23.88;72.52;100125.28;;;;-58
2020/08/15 13:25:09;;;;;;;12.87;3.63;;;;;;;23.89;72.45;100127.08;;;;-52
2020/08/15 13:28:09;;;;;;;13.92;3.75;;;;;;;23.91;72.43;100117.72;;;;-54
2020/08/15 13:31:09;;;;;;;14.39;4.05;;;;;;;23.92;72.27;100118.59;;;;-53
2020/08/15 13:34:08;;;;;;;16.71;4.12;;;;;;;23.93;72.42;100117.83;;;;-52
2020/08/15 13:37:08;;;;;;;15.45;3.85;;;;;;;23.93;72.48;100113.65;;;;-51
2020/08/15 13:40:09;;;;;;;16.34;3.80;;;;;;;23.93;72.38;100108.52;;;;-54
2020/08/15 13:43:08;;;;;;;15.81;3.51;;;;;;;23.94;72.36;100105.77;;;;-49
2020/08/15 13:46:08;;;;;;;12.72;3.91;;;;;;;23.94;72.30;100099.88;;;;-61
2020/08/15 13:49:09;;;;;;;17.15;3.63;;;;;;;23.94;72.38;100097.98;;;;-62
2020/08/15 13:52:09;;;;;;;13.24;3.44;;;;;;;23.95;72.30;100096.69;;;;-62
2020/08/15 13:55:08;;;;;;;17.67;3.68;;;;;;;23.96;72.46;100094.67;;;;-60
2020/08/15 13:58:08;;;;;;;8.26;3.69;;;;;;;23.97;72.35;100091.74;;;;-52
2020/08/15 14:01:09;;;;;;;12.89;3.95;;;;;;;23.98;73.22;100091.69;;;;-53
2020/08/15 14:04:08;;;;;;;13.09;3.60;;;;;;;24.00;72.53;100087.67;;;;-62
2020/08/15 14:07:09;;;;;;;14.07;3.56;;;;;;;24.01;72.26;100085.45;;;;-53
2020/08/15 14:10:09;;;;;;;11.10;3.45;;;;;;;24.02;72.38;100086.09;;;;-62
2020/08/15 14:13:09;;;;;;;12.67;3.63;;;;;;;24.02;72.42;100079.92;;;;-60
2020/08/15 14:16:09;;;;;;;13.55;3.55;;;;;;;24.02;72.38;100073.05;;;;-60
2020/08/15 14:19:08;;;;;;;9.57;3.45;;;;;;;24.02;72.35;100071.73;;;;-62
2020/08/15 14:22:09;;;;;;;10.52;3.55;;;;;;;24.02;72.36;100069.86;;;;-53
2020/08/15 14:25:09;;;;;;;14.17;3.28;;;;;;;24.04;72.29;100068.03;;;;-62
2020/08/15 14:28:09;;;;;;;10.71;3.74;;;;;;;24.04;72.31;100069.26;;;;-62
2020/08/15 14:31:09;;;;;;;15.07;3.49;;;;;;;24.05;72.19;100065.13;;;;-55
2020/08/15 14:34:09;;;;;;;10.94;3.58;;;;;;;24.05;72.21;100064.74;;;;-59
2020/08/15 14:37:08;;;;;;;10.02;3.27;;;;;;;24.06;72.20;100059.32;;;;-62
2020/08/15 14:40:09;;;;;;;9.78;3.45;;;;;;;24.06;72.18;100053.34;;;;-59
2020/08/15 14:43:09;;;;;;;14.28;3.58;;;;;;;24.06;72.15;100051.36;;;;-56
2020/08/15 14:46:08;;;;;;;15.84;3.76;;;;;;;24.07;72.08;100046.60;;;;-60
2020/08/15 14:49:09;;;;;;;10.51;3.51;;;;;;;24.08;72.20;100043.08;;;;-60
2020/08/15 14:52:08;;;;;;;12.92;3.39;;;;;;;24.08;72.09;100039.86;;;;-58
2020/08/15 14:55:08;;;;;;;13.65;3.30;;;;;;;24.09;72.11;100046.23;;;;-56
2020/08/15 14:58:08;;;;;;;10.65;3.47;;;;;;;24.09;72.18;100039.60;;;;-57
2020/08/15 15:01:09;;;;;;;13.89;3.25;;;;;;;24.09;72.14;100042.95;;;;-56
2020/08/15 15:04:09;;;;;;;12.49;3.37;;;;;;;24.09;72.09;100041.23;;;;-59
2020/08/15 15:07:09;;;;;;;12.47;3.47;;;;;;;24.07;71.99;100037.27;;;;-60
2020/08/15 15:10:09;;;;;;;9.21;3.50;;;;;;;24.06;71.98;100030.67;;;;-59
2020/08/15 15:13:09;;;;;;;14.03;3.51;;;;;;;24.05;72.01;100035.01;;;;-58
2020/08/15 15:16:09;;;;;;;8.56;3.50;;;;;;;24.04;71.88;100031.20;;;;-58
2020/08/15 15:19:09;;;;;;;9.71;3.32;;;;;;;24.03;71.83;100031.45;;;;-58
2020/08/15 15:22:09;;;;;;;10.29;3.22;;;;;;;24.02;71.97;100029.52;;;;-58
2020/08/15 15:25:08;;;;;;;11.60;3.33;;;;;;;24.01;71.82;100031.09;;;;-58
2020/08/15 15:28:09;;;;;;;10.69;3.33;;;;;;;24.00;71.88;100032.25;;;;-58
2020/08/15 15:31:08;;;;;;;13.61;3.33;;;;;;;24.00;71.97;100029.94;;;;-57
2020/08/15 15:34:09;;;;;;;8.41;3.23;;;;;;;24.01;71.95;100031.98;;;;-64
2020/08/15 15:37:09;;;;;;;8.47;3.18;;;;;;;24.02;71.90;100034.99;;;;-55
2020/08/15 15:40:09;;;;;;;8.01;3.25;;;;;;;24.03;71.88;100028.66;;;;-52
2020/08/15 15:43:08;;;;;;;8.91;3.03;;;;;;;24.05;71.98;100029.53;;;;-53
2020/08/15 15:46:09;;;;;;;8.25;3.19;;;;;;;24.07;71.96;100028.66;;;;-51
2020/08/15 15:49:08;;;;;;;7.81;3.13;;;;;;;24.08;71.94;100022.02;;;;-51
2020/08/15 15:52:08;;;;;;;7.15;2.98;;;;;;;24.09;71.94;100024.38;;;;-52
2020/08/15 15:55:08;;;;;;;7.77;3.10;;;;;;;24.09;71.95;100025.61;;;;-53
2020/08/15 15:58:08;;;;;;;10.05;3.14;;;;;;;24.10;72.00;100025.73;;;;-53
2020/08/15 16:01:09;;;;;;;7.31;3.14;;;;;;;24.09;71.94;100022.72;;;;-53
2020/08/15 16:04:08;;;;;;;7.44;3.13;;;;;;;24.10;71.89;100016.52;;;;-52
2020/08/15 16:07:08;;;;;;;8.19;3.15;;;;;;;24.10;71.90;100019.52;;;;-52
2020/08/15 16:10:09;;;;;;;7.03;3.13;;;;;;;24.11;71.96;100018.59;;;;-54
2020/08/15 16:13:08;;;;;;;6.14;2.59;;;;;;;24.12;71.91;100015.39;;;;-55
2020/08/15 16:16:08;;;;;;;6.14;2.81;;;;;;;24.13;71.87;100021.00;;;;-58
2020/08/15 16:19:08;;;;;;;5.72;2.77;;;;;;;24.13;71.94;100021.34;;;;-54
2020/08/15 16:22:09;;;;;;;6.61;3.05;;;;;;;24.13;71.89;100019.20;;;;-56
2020/08/15 16:25:08;;;;;;;6.63;2.71;;;;;;;24.13;71.82;100018.88;;;;-51
2020/08/15 16:28:09;;;;;;;6.28;2.77;;;;;;;24.11;71.68;100016.45;;;;-59
2020/08/15 16:31:08;;;;;;;7.63;3.31;;;;;;;24.10;71.78;100019.19;;;;-58
2020/08/15 16:34:08;;;;;;;7.09;3.03;;;;;;;24.09;71.96;100018.23;;;;-60
2020/08/15 16:37:08;;;;;;;6.88;2.83;;;;;;;24.09;71.90;100016.11;;;;-55